createdAt,value
2022-12-19T00:00:29.870Z,62.58
2022-12-19T00:02:57.656Z,54.30
2022-12-19T00:05:25.388Z,49.95
2022-12-19T00:07:53.628Z,54.25
2022-12-19T00:10:21.264Z,59.80
2022-12-19T00:12:50.274Z,52.08
2022-12-19T00:15:18.140Z,53.00
2022-12-19T00:17:45.767Z,52.80
2022-12-19T00:20:13.399Z,59.55
2022-12-19T00:22:45.375Z,59.30
2022-12-19T00:25:13.016Z,58.10
2022-12-19T00:27:42.117Z,66.50
2022-12-19T00:30:12.848Z,64.70
2022-12-19T00:32:40.512Z,52.17
2022-12-19T00:35:08.444Z,54.47
2022-12-19T00:37:36.071Z,57.70
2022-12-19T00:40:07.418Z,54.25
2022-12-19T00:42:35.085Z,61.33
2022-12-19T00:45:02.981Z,51.35
2022-12-19T00:47:31.970Z,53.90
2022-12-19T00:49:59.601Z,57.58
2022-12-19T00:52:27.224Z,57.20
2022-12-19T00:54:57.115Z,59.33
2022-12-19T00:57:24.793Z,62.35
2022-12-19T00:59:52.395Z,48.40
2022-12-19T01:02:20.322Z,54.10
2022-12-19T01:04:49.516Z,60.28
2022-12-19T01:07:17.182Z,53.97
2022-12-19T01:09:44.804Z,57.78
2022-12-19T01:12:31.143Z,50.85
2022-12-19T01:15:04.652Z,53.33
2022-12-19T01:17:34.728Z,57.38
2022-12-19T01:20:12.971Z,52.65
2022-12-19T01:22:40.592Z,55.67
2022-12-19T01:25:08.624Z,48.85
2022-12-19T01:27:36.361Z,54.40
2022-12-19T01:30:04.932Z,55.28
2022-12-19T01:32:35.271Z,54.30
2022-12-19T01:35:03.019Z,59.85
2022-12-19T01:37:32.055Z,61.67
2022-12-19T01:39:59.681Z,64.13
2022-12-19T01:42:27.317Z,53.40
2022-12-19T01:45:33.505Z,61.25
2022-12-19T01:48:08.447Z,54.60
2022-12-19T01:50:38.803Z,59.83
2022-12-19T01:53:11.004Z,60.42
2022-12-19T01:55:40.965Z,62.90
2022-12-19T01:58:09.148Z,58.00
2022-12-19T02:00:36.868Z,56.85
2022-12-19T02:03:09.445Z,60.55
2022-12-19T02:05:41.254Z,73.57
2022-12-19T02:08:10.889Z,53.15
2022-12-19T02:10:38.658Z,58.85
2022-12-19T02:13:06.701Z,68.15
2022-12-19T02:15:38.494Z,56.17
2022-12-19T02:18:11.051Z,60.03
2022-12-19T02:20:52.560Z,61.00
2022-12-19T02:24:11.047Z,64.55
2022-12-19T02:26:58.019Z,63.33
2022-12-19T02:29:40.195Z,57.08
2022-12-19T02:32:13.844Z,57.72
2022-12-19T02:34:45.239Z,52.80
2022-12-19T02:37:15.187Z,59.10
2022-12-19T02:39:48.721Z,58.43
2022-12-19T02:42:21.796Z,60.15
2022-12-19T02:44:52.867Z,51.83
2022-12-19T02:47:22.848Z,59.80
2022-12-19T02:49:50.533Z,54.83
2022-12-19T02:52:44.435Z,68.95
2022-12-19T02:55:15.518Z,56.63
2022-12-19T02:57:51.577Z,67.68
2022-12-19T03:00:20.674Z,62.63
2022-12-19T03:03:01.264Z,56.30
2022-12-19T03:05:33.241Z,63.00
2022-12-19T03:08:08.268Z,60.63
2022-12-19T03:10:42.492Z,66.28
2022-12-19T03:13:12.009Z,62.30
2022-12-19T03:15:40.910Z,64.45
2022-12-19T03:18:10.566Z,60.42
2022-12-19T03:20:45.332Z,57.60
2022-12-19T03:23:13.724Z,54.83
2022-12-19T03:25:42.239Z,59.13
2022-12-19T03:28:12.464Z,61.00
2022-12-19T03:30:42.520Z,67.82
2022-12-19T03:33:12.982Z,52.95
2022-12-19T03:35:40.857Z,61.70
2022-12-19T03:38:10.833Z,64.43
2022-12-19T03:40:39.128Z,55.22
2022-12-19T03:43:10.351Z,58.25
2022-12-19T03:45:46.426Z,62.88
2022-12-19T03:48:17.222Z,54.95
2022-12-19T03:50:49.408Z,64.32
2022-12-19T03:53:25.589Z,71.75
2022-12-19T03:55:56.711Z,66.85
2022-12-19T03:58:31.230Z,72.15
2022-12-19T04:01:00.875Z,73.75
2022-12-19T04:03:30.312Z,69.07
2022-12-19T04:05:58.838Z,74.10
2022-12-19T04:08:27.067Z,73.43
2022-12-19T04:10:59.035Z,65.22
2022-12-19T04:13:31.216Z,71.72
2022-12-19T04:16:04.111Z,91.90
2022-12-19T04:18:34.594Z,64.88
2022-12-19T04:21:06.888Z,73.18
2022-12-19T04:23:37.007Z,74.57
2022-12-19T04:26:05.949Z,67.80
2022-12-19T04:28:38.692Z,67.85
2022-12-19T04:31:06.797Z,65.20
2022-12-19T04:33:35.951Z,81.40
2022-12-19T04:36:03.722Z,69.38
2022-12-19T04:38:31.410Z,70.90
2022-12-19T04:40:59.054Z,76.40
2022-12-19T04:43:26.656Z,78.25
2022-12-19T04:45:57.610Z,66.75
2022-12-19T04:48:25.634Z,66.78
2022-12-19T04:50:54.744Z,67.88
2022-12-19T04:53:22.421Z,71.07
2022-12-19T04:55:50.109Z,70.82
2022-12-19T04:58:21.652Z,68.47
2022-12-19T05:00:49.782Z,60.10
2022-12-19T05:03:17.461Z,68.25
2022-12-19T05:05:45.137Z,65.00
2022-12-19T05:08:14.219Z,62.92
2022-12-19T05:10:41.833Z,65.55
2022-12-19T05:13:09.934Z,64.75
2022-12-19T05:15:37.626Z,67.88
2022-12-19T05:18:05.709Z,55.55
2022-12-19T05:20:33.353Z,63.88
2022-12-19T05:23:05.012Z,75.03
2022-12-19T05:25:36.651Z,66.15
2022-12-19T05:28:04.598Z,68.05
2022-12-19T05:30:32.450Z,70.75
2022-12-19T05:33:00.203Z,62.45
2022-12-19T05:35:28.024Z,73.80
2022-12-19T05:37:55.739Z,69.75
2022-12-19T05:40:23.434Z,70.55
2022-12-19T05:42:52.626Z,64.43
2022-12-19T05:45:20.474Z,64.65
2022-12-19T05:47:48.701Z,68.75
2022-12-19T05:50:16.810Z,69.65
2022-12-19T05:52:44.784Z,66.20
2022-12-19T05:55:12.793Z,71.32
2022-12-19T05:57:40.495Z,61.03
2022-12-19T06:00:11.250Z,63.20
2022-12-19T06:02:39.174Z,63.30
2022-12-19T06:05:07.684Z,61.65
2022-12-19T06:07:35.396Z,63.58
2022-12-19T06:10:03.833Z,61.85
2022-12-19T06:12:31.595Z,67.45
2022-12-19T06:14:59.297Z,63.72
2022-12-19T06:17:28.468Z,56.10
2022-12-19T06:19:56.271Z,56.47
2022-12-19T06:22:24.471Z,51.47
2022-12-19T06:24:52.227Z,63.40
2022-12-19T06:27:20.094Z,59.13
2022-12-19T06:29:47.962Z,59.63
2022-12-19T06:32:15.806Z,56.28
2022-12-19T06:35:03.678Z,66.10
2022-12-19T06:37:32.055Z,64.53
2022-12-19T06:39:59.861Z,62.88
2022-12-19T06:42:26.703Z,67.72
2022-12-19T06:44:56.412Z,63.72
2022-12-19T06:47:25.254Z,55.45
2022-12-19T06:49:54.902Z,58.55
2022-12-19T06:52:22.741Z,79.22
2022-12-19T06:54:50.611Z,67.43
2022-12-19T06:57:18.562Z,68.93
2022-12-19T06:59:46.374Z,66.20
2022-12-19T07:02:23.470Z,67.25
2022-12-19T07:04:56.799Z,65.82
2022-12-19T07:07:24.750Z,67.20
2022-12-19T07:09:52.591Z,64.88
2022-12-19T07:12:20.411Z,66.50
2022-12-19T07:14:53.172Z,72.03
2022-12-19T07:17:22.413Z,68.55
2022-12-19T07:19:50.225Z,62.75
2022-12-19T07:22:19.533Z,80.00
2022-12-19T07:24:47.451Z,79.18
2022-12-19T07:27:15.265Z,81.82
2022-12-19T07:29:43.068Z,81.30
2022-12-19T07:32:10.814Z,73.80
2022-12-19T07:34:38.537Z,63.92
2022-12-19T07:37:07.008Z,68.63
2022-12-19T07:39:36.283Z,60.40
2022-12-19T07:42:04.148Z,60.40
2022-12-19T07:44:31.957Z,60.50
2022-12-19T07:46:59.840Z,63.25
2022-12-19T07:49:27.636Z,72.50
2022-12-19T07:51:55.446Z,66.10
2022-12-19T07:54:23.221Z,60.70
2022-12-19T07:56:53.076Z,64.85
2022-12-19T07:59:25.719Z,71.20
2022-12-19T08:01:56.888Z,62.67
2022-12-19T08:04:25.187Z,63.53
2022-12-19T08:06:52.977Z,67.00
2022-12-19T08:09:20.739Z,70.72
2022-12-19T08:11:48.480Z,61.38
2022-12-19T08:14:17.700Z,73.38
2022-12-19T08:17:18.571Z,63.72
2022-12-19T08:19:33.259Z,61.92
2022-12-19T08:22:01.116Z,66.93
2022-12-19T08:24:28.935Z,63.85
2022-12-19T08:26:56.732Z,54.83
2022-12-19T08:29:25.951Z,60.03
2022-12-19T08:31:53.733Z,54.70
2022-12-19T08:34:21.605Z,49.45
2022-12-19T08:36:49.320Z,54.85
2022-12-19T08:39:17.182Z,72.20
2022-12-19T08:41:45.136Z,56.55
2022-12-19T08:44:13.320Z,47.70
2022-12-19T08:46:48.067Z,52.42
2022-12-19T08:49:18.776Z,48.10
2022-12-19T08:51:46.695Z,56.42
2022-12-19T08:54:14.975Z,52.20
2022-12-19T08:56:46.061Z,58.83
2022-12-19T09:01:50.447Z,49.08
2022-12-19T09:05:52.914Z,50.33
2022-12-19T09:07:06.410Z,48.05
2022-12-19T09:09:34.225Z,47.38
2022-12-19T09:12:02.025Z,45.85
2022-12-19T09:14:34.608Z,44.40
2022-12-19T09:17:04.578Z,51.67
2022-12-19T09:19:32.702Z,49.17
2022-12-19T09:22:00.584Z,49.15
2022-12-19T09:24:28.413Z,51.65
2022-12-19T09:26:56.079Z,40.60
2022-12-19T09:29:23.840Z,48.88
2022-12-19T09:31:56.218Z,45.85
2022-12-19T09:34:33.107Z,49.03
2022-12-19T09:37:07.515Z,52.13
2022-12-19T09:39:36.030Z,47.88
2022-12-19T09:42:22.569Z,44.30
2022-12-19T09:45:00.773Z,44.92
2022-12-19T09:47:30.361Z,45.92
2022-12-19T09:50:00.407Z,46.60
2022-12-19T09:52:33.187Z,49.92
2022-12-19T09:55:04.625Z,51.30
2022-12-19T09:57:41.053Z,32.13
2022-12-19T10:00:11.903Z,42.35
2022-12-19T10:02:42.852Z,43.17
2022-12-19T10:05:31.123Z,38.75
2022-12-19T10:08:17.152Z,42.17
2022-12-19T10:12:14.056Z,47.63
2022-12-19T10:14:03.982Z,63.17
2022-12-19T10:16:38.049Z,44.35
2022-12-19T10:19:08.291Z,41.50
2022-12-19T10:24:43.080Z,47.05
2022-12-19T10:27:30.536Z,42.33
2022-12-19T10:30:05.158Z,39.10
2022-12-19T10:32:37.613Z,41.05
2022-12-19T10:35:14.133Z,33.75
2022-12-19T10:37:49.806Z,38.05
2022-12-19T10:40:28.454Z,43.88
2022-12-19T10:43:03.046Z,39.95
2022-12-19T10:45:41.461Z,50.03
2022-12-19T10:48:11.209Z,76.18
2022-12-19T10:50:39.093Z,48.50
2022-12-19T10:53:11.160Z,38.08
2022-12-19T10:58:21.586Z,41.75
2022-12-19T11:01:01.099Z,47.30
2022-12-19T11:03:28.881Z,44.78
2022-12-19T11:05:58.838Z,52.67
2022-12-19T11:08:29.078Z,42.88
2022-12-19T11:11:35.077Z,43.28
2022-12-19T11:19:14.332Z,46.67
2022-12-19T11:21:14.515Z,48.35
2022-12-19T11:29:32.068Z,39.63
2022-12-19T11:29:36.341Z,47.13
2022-12-19T11:29:54.116Z,44.65
2022-12-19T11:30:46.432Z,41.78
2022-12-19T11:32:15.544Z,40.92
2022-12-19T11:33:55.292Z,37.03
2022-12-19T11:36:31.715Z,41.13
2022-12-19T11:39:00.601Z,32.65
2022-12-19T11:41:32.567Z,34.00
2022-12-19T11:44:03.516Z,37.85
2022-12-19T11:46:38.110Z,31.73
2022-12-19T11:49:12.265Z,30.95
2022-12-19T11:51:46.427Z,32.67
2022-12-19T11:54:19.250Z,39.55
2022-12-19T11:56:48.427Z,44.95
2022-12-19T11:59:19.261Z,36.08
2022-12-19T12:01:57.030Z,38.03
2022-12-19T12:04:56.646Z,37.22
2022-12-19T12:07:40.665Z,38.53
2022-12-19T12:13:23.133Z,38.53
2022-12-19T12:22:14.700Z,36.88
2022-12-19T12:26:23.098Z,42.47
2022-12-19T12:31:05.046Z,32.35
2022-12-19T12:31:42.402Z,34.03
2022-12-19T12:31:46.051Z,35.17
2022-12-19T12:31:51.533Z,26.73
2022-12-19T12:35:48.613Z,32.67
2022-12-19T12:39:25.302Z,26.63
2022-12-19T12:42:06.436Z,33.95
2022-12-19T12:44:41.128Z,28.33
2022-12-19T12:47:18.448Z,32.30
2022-12-19T12:49:47.968Z,31.67
2022-12-19T12:52:19.193Z,29.95
2022-12-19T12:54:48.919Z,21.85
2022-12-19T12:57:22.380Z,30.75
2022-12-19T13:00:15.721Z,31.90
2022-12-19T13:02:47.626Z,26.52
2022-12-19T13:05:53.502Z,27.95
2022-12-19T13:08:33.354Z,32.30
2022-12-19T13:11:02.777Z,32.15
2022-12-19T13:13:51.129Z,32.95
2022-12-19T13:16:51.277Z,33.15
2022-12-19T13:19:27.859Z,33.30
2022-12-19T13:22:18.187Z,36.80
2022-12-19T13:24:47.242Z,42.75
2022-12-19T13:27:43.604Z,39.80
2022-12-19T13:30:20.605Z,42.13
2022-12-19T13:33:07.387Z,40.83
2022-12-19T13:39:08.285Z,37.10
2022-12-19T13:40:01.896Z,47.35
2022-12-19T13:41:45.229Z,42.03
2022-12-19T13:44:13.044Z,33.40
2022-12-19T13:46:42.537Z,32.30
2022-12-19T13:49:15.265Z,31.23
2022-12-19T13:51:57.200Z,35.75
2022-12-19T13:56:55.031Z,30.55
2022-12-19T13:59:24.816Z,31.95
2022-12-19T14:01:53.962Z,32.53
2022-12-19T14:04:32.446Z,31.52
2022-12-19T14:07:03.086Z,26.98
2022-12-19T14:11:30.866Z,34.42
2022-12-19T14:13:40.407Z,33.00
2022-12-19T14:15:32.288Z,34.97
2022-12-19T14:18:43.249Z,31.00
2022-12-19T14:22:05.443Z,30.63
2022-12-19T14:23:43.252Z,26.38
2022-12-19T14:28:25.007Z,31.98
2022-12-19T14:29:06.470Z,33.13
2022-12-19T14:31:35.740Z,35.95
2022-12-19T14:34:42.933Z,44.63
2022-12-19T14:36:53.606Z,48.63
2022-12-19T14:39:33.244Z,52.22
2022-12-19T14:42:32.981Z,48.20
2022-12-19T14:52:25.618Z,43.97
2022-12-19T14:53:52.154Z,46.15
2022-12-19T14:54:07.367Z,54.22
2022-12-19T14:56:02.087Z,46.20
2022-12-19T14:57:25.549Z,48.65
2022-12-19T15:01:07.972Z,71.47
2022-12-19T15:03:21.080Z,62.38
2022-12-19T15:05:48.941Z,56.10
2022-12-19T15:10:59.732Z,57.58
2022-12-19T15:11:53.958Z,53.35
2022-12-19T15:14:54.786Z,54.22
2022-12-19T15:17:23.368Z,58.15
2022-12-19T15:19:51.191Z,53.65
2022-12-19T15:22:19.772Z,61.42
2022-12-19T15:24:47.662Z,55.60
2022-12-19T15:27:17.086Z,46.67
2022-12-19T15:29:46.427Z,53.05
2022-12-19T15:32:15.851Z,66.55
2022-12-19T15:34:50.551Z,68.35
2022-12-19T15:37:18.931Z,56.15
2022-12-19T15:39:46.596Z,58.30
2022-12-19T15:42:18.832Z,55.90
2022-12-19T15:44:48.391Z,54.65
2022-12-19T15:47:18.467Z,50.50
2022-12-19T15:49:46.349Z,62.03
2022-12-19T15:52:17.077Z,55.97
2022-12-19T15:54:49.676Z,62.20
2022-12-19T15:57:22.842Z,53.50
2022-12-19T16:02:21.723Z,56.80
2022-12-19T16:04:52.322Z,57.28
2022-12-19T16:07:25.432Z,56.25
2022-12-19T16:09:54.728Z,59.47
2022-12-19T16:12:25.072Z,43.55
2022-12-19T16:14:57.955Z,69.07
2022-12-19T16:17:26.643Z,104.68
2022-12-19T16:19:54.303Z,112.18
2022-12-19T16:22:23.824Z,124.68
2022-12-19T16:24:51.800Z,131.40
2022-12-19T16:27:24.007Z,235.60
2022-12-19T16:29:51.846Z,114.57
2022-12-19T16:32:23.023Z,115.35
2022-12-19T16:34:50.743Z,32.73
2022-12-19T16:37:18.389Z,45.33
2022-12-19T16:39:46.143Z,41.58
2022-12-19T16:42:16.211Z,51.58
2022-12-19T16:44:45.128Z,44.13
2022-12-19T16:47:14.174Z,46.00
2022-12-19T16:49:43.703Z,49.50
2022-12-19T16:52:11.548Z,42.95
2022-12-19T16:54:39.402Z,39.95
2022-12-19T16:57:07.726Z,41.65
2022-12-19T16:59:37.552Z,41.75
2022-12-19T17:02:27.014Z,44.05
2022-12-19T17:04:56.634Z,43.05
2022-12-19T17:07:24.326Z,39.88
2022-12-19T17:09:52.051Z,45.47
2022-12-19T17:12:19.769Z,42.28
2022-12-19T17:14:47.406Z,41.42
2022-12-19T17:17:16.031Z,39.03
2022-12-19T17:19:45.051Z,42.70
2022-12-19T17:22:14.721Z,41.75
2022-12-19T17:24:46.522Z,42.47
2022-12-19T17:27:14.540Z,36.17
2022-12-19T17:29:42.172Z,35.65
2022-12-19T17:32:11.497Z,34.00
2022-12-19T17:34:39.204Z,36.58
2022-12-19T17:37:06.982Z,33.50
2022-12-19T17:39:36.021Z,45.25
2022-12-19T17:42:22.629Z,85.85
2022-12-19T17:44:50.397Z,57.55
2022-12-19T17:47:20.686Z,63.63
2022-12-19T17:49:49.453Z,59.00
2022-12-19T17:52:19.254Z,43.28
2022-12-19T17:54:48.424Z,54.33
2022-12-19T17:57:16.532Z,65.38
2022-12-19T17:59:46.262Z,49.72
2022-12-19T18:02:20.749Z,38.75
2022-12-19T18:04:48.750Z,40.10
2022-12-19T18:07:17.130Z,35.72
2022-12-19T18:09:44.940Z,59.03
2022-12-19T18:12:13.983Z,114.60
2022-12-19T18:14:41.645Z,68.28
2022-12-19T18:17:11.646Z,168.88
2022-12-19T18:19:39.522Z,64.72
2022-12-19T18:22:10.895Z,42.08
2022-12-19T18:24:38.550Z,26.15
2022-12-19T18:27:06.370Z,39.70
2022-12-19T18:29:35.471Z,42.30
2022-12-19T18:32:03.144Z,38.42
2022-12-19T18:34:31.947Z,35.13
2022-12-19T18:36:59.627Z,41.50
2022-12-19T18:39:30.721Z,40.80
2022-12-19T18:41:58.372Z,80.37
2022-12-19T18:44:26.067Z,37.72
2022-12-19T18:46:55.085Z,28.55
2022-12-19T18:49:23.018Z,37.28
2022-12-19T18:51:50.714Z,35.78
2022-12-19T18:54:20.028Z,32.85
2022-12-19T18:56:47.877Z,36.63
2022-12-19T18:59:15.935Z,45.83
2022-12-19T19:01:47.407Z,39.03
2022-12-19T19:04:17.919Z,34.80
2022-12-19T19:06:51.069Z,37.95
2022-12-19T19:09:21.431Z,36.97
2022-12-19T19:11:49.318Z,54.33
2022-12-19T19:14:16.994Z,76.05
2022-12-19T19:16:44.838Z,48.75
2022-12-19T19:19:17.488Z,40.55
2022-12-19T19:21:45.317Z,47.90
2022-12-19T19:24:15.533Z,44.78
2022-12-19T19:26:43.328Z,35.92
2022-12-19T19:29:11.050Z,34.47
2022-12-19T19:31:40.001Z,34.70
2022-12-19T19:34:10.714Z,34.25
2022-12-19T19:36:41.660Z,35.45
2022-12-19T19:39:10.111Z,36.75
2022-12-19T19:41:37.747Z,32.60
2022-12-19T19:44:05.624Z,29.42
2022-12-19T19:46:33.531Z,38.33
2022-12-19T19:49:01.255Z,39.72
2022-12-19T19:51:29.636Z,34.03
2022-12-19T19:53:58.644Z,44.30
2022-12-19T19:56:26.291Z,40.08
2022-12-19T19:58:55.212Z,39.95
2022-12-19T20:01:22.968Z,40.08
2022-12-19T20:03:50.849Z,33.33
2022-12-19T20:06:19.198Z,29.85
2022-12-19T20:08:47.346Z,28.85
2022-12-19T20:11:16.671Z,26.05
2022-12-19T20:13:44.402Z,29.20
2022-12-19T20:16:15.671Z,35.55
2022-12-19T20:18:47.191Z,32.78
2022-12-19T20:21:14.909Z,25.67
2022-12-19T20:23:43.362Z,32.60
2022-12-19T20:26:12.377Z,36.88
2022-12-19T20:28:48.232Z,46.70
2022-12-19T20:31:17.257Z,39.08
2022-12-19T20:33:46.153Z,38.45
2022-12-19T20:36:14.621Z,52.83
2022-12-19T20:38:42.345Z,44.83
2022-12-19T20:41:10.406Z,43.58
2022-12-19T20:43:38.788Z,34.75
2022-12-19T20:46:10.691Z,35.65
2022-12-19T20:48:38.732Z,28.50
2022-12-19T20:51:07.629Z,24.00
2022-12-19T20:53:37.469Z,32.78
2022-12-19T20:56:06.498Z,31.17
2022-12-19T20:58:35.513Z,24.75
2022-12-19T21:01:07.402Z,27.85
2022-12-19T21:03:37.314Z,32.58
2022-12-19T21:06:05.909Z,26.27
2022-12-19T21:08:33.690Z,27.33
2022-12-19T21:11:02.030Z,24.85
2022-12-19T21:13:30.152Z,28.13
2022-12-19T21:16:01.963Z,25.40
2022-12-19T21:18:30.405Z,24.42
2022-12-19T21:20:59.682Z,27.55
2022-12-19T21:23:27.729Z,25.42
2022-12-19T21:25:58.870Z,23.17
2022-12-19T21:28:26.704Z,34.80
2022-12-19T21:30:58.975Z,39.88
2022-12-19T21:33:27.090Z,49.40
2022-12-19T21:35:54.874Z,46.88
2022-12-19T21:38:24.723Z,41.75
2022-12-19T21:40:52.433Z,54.95
2022-12-19T21:43:20.046Z,45.92
2022-12-19T21:45:47.778Z,53.55
2022-12-19T21:48:15.470Z,45.63
2022-12-19T21:50:43.130Z,50.10
2022-12-19T21:53:10.790Z,39.30
2022-12-19T21:55:39.969Z,33.50
2022-12-19T21:58:07.828Z,38.30
2022-12-19T22:00:35.617Z,43.72
2022-12-19T22:03:18.630Z,30.63
2022-12-19T22:05:46.404Z,32.30
2022-12-19T22:08:14.053Z,35.35
2022-12-19T22:10:44.114Z,29.02
2022-12-19T22:13:11.748Z,34.33
2022-12-19T22:15:39.585Z,25.70
2022-12-19T22:18:07.283Z,27.33
2022-12-19T22:20:34.933Z,28.30
2022-12-19T22:23:03.996Z,29.85
2022-12-19T22:25:33.532Z,30.73
2022-12-19T22:28:02.568Z,27.92
2022-12-19T22:30:34.105Z,25.52
2022-12-19T22:33:01.748Z,25.63
2022-12-19T22:35:29.397Z,25.33
2022-12-19T22:37:57.213Z,26.80
2022-12-19T22:40:24.896Z,21.48
2022-12-19T22:42:52.975Z,30.35
2022-12-19T22:45:21.932Z,29.25
2022-12-19T22:47:49.595Z,23.55
2022-12-19T22:50:17.454Z,26.20
2022-12-19T22:52:45.047Z,29.92
2022-12-19T22:55:12.689Z,37.30
2022-12-19T22:57:40.731Z,47.03
2022-12-19T23:00:12.293Z,46.17
2022-12-19T23:02:41.996Z,42.35
2022-12-19T23:05:10.128Z,45.20
2022-12-19T23:07:37.853Z,44.00
2022-12-19T23:10:06.374Z,34.83
2022-12-19T23:12:34.026Z,35.83
2022-12-19T23:15:01.680Z,32.70
2022-12-19T23:17:29.966Z,36.17
2022-12-19T23:19:59.065Z,42.22
2022-12-19T23:22:26.757Z,32.55
2022-12-19T23:24:54.466Z,31.05
2022-12-19T23:27:22.220Z,31.75
2022-12-19T23:29:50.050Z,31.00
2022-12-19T23:32:18.220Z,25.50
2022-12-19T23:34:46.071Z,21.17
2022-12-19T23:37:15.063Z,21.77
2022-12-19T23:39:42.683Z,23.00
2022-12-19T23:42:10.362Z,62.42
2022-12-19T23:44:38.148Z,63.60
2022-12-19T23:47:05.876Z,45.60
2022-12-19T23:49:33.897Z,29.55
2022-12-19T23:52:01.680Z,31.27
2022-12-19T23:54:30.919Z,29.05
2022-12-19T23:56:58.677Z,26.70
2022-12-19T23:59:26.302Z,20.95
